createdAt,value
2023-04-09T00:01:22.594Z,102578.47
2023-04-09T00:03:49.350Z,102586.06
2023-04-09T00:06:16.482Z,102591.53
2023-04-09T00:08:43.098Z,102594.47
2023-04-09T00:11:09.662Z,102582.75
2023-04-09T00:13:39.591Z,102583.56
2023-04-09T00:16:07.518Z,102579.22
2023-04-09T00:18:34.160Z,102583.22
2023-04-09T00:21:00.654Z,102584.91
2023-04-09T00:23:27.239Z,102566.06
2023-04-09T00:25:53.746Z,102576.97
2023-04-09T00:28:20.219Z,102578.84
2023-04-09T00:30:46.735Z,102570.94
2023-04-09T00:33:13.275Z,102575.56
2023-04-09T00:35:39.866Z,102567.41
2023-04-09T00:38:06.372Z,102570.94
2023-04-09T00:40:33.030Z,102572.25
2023-04-09T00:42:59.538Z,102571.41
2023-04-09T00:45:26.133Z,102557.81
2023-04-09T00:47:53.452Z,102555.34
2023-04-09T00:50:20.461Z,102575.44
2023-04-09T00:52:47.210Z,102564.56
2023-04-09T00:55:14.427Z,102563.72
2023-04-09T00:57:40.917Z,102556.63
2023-04-09T01:00:08.275Z,102561.25
2023-04-09T01:02:35.249Z,102563.16
2023-04-09T01:05:02.072Z,102564.22
2023-04-09T01:07:40.432Z,102557.94
2023-04-09T01:10:51.258Z,102563.63
2023-04-09T01:13:28.336Z,102564.47
2023-04-09T01:15:58.538Z,102565.75
2023-04-09T01:18:31.435Z,102559.75
2023-04-09T01:21:06.063Z,102553.47
2023-04-09T01:23:52.898Z,102555.34
2023-04-09T01:26:57.248Z,102559.16
2023-04-09T01:29:25.809Z,102563.78
2023-04-09T01:31:54.345Z,102555.00
2023-04-09T01:34:22.140Z,102561.31
2023-04-09T01:36:58.200Z,102549.56
2023-04-09T01:39:25.581Z,102554.19
2023-04-09T01:41:53.537Z,102555.00
2023-04-09T01:44:20.769Z,102545.44
2023-04-09T01:46:48.601Z,102551.72
2023-04-09T01:49:16.106Z,102547.91
2023-04-09T01:51:43.425Z,102555.50
2023-04-09T01:54:09.965Z,102560.34
2023-04-09T01:56:46.552Z,102547.00
2023-04-09T01:59:13.649Z,102554.91
2023-04-09T02:01:50.061Z,102548.03
2023-04-09T02:04:24.230Z,102544.28
2023-04-09T02:07:14.300Z,102555.38
2023-04-09T02:09:42.113Z,102543.66
2023-04-09T02:12:13.563Z,102547.47
2023-04-09T02:14:41.258Z,102545.00
2023-04-09T02:17:08.130Z,102545.00
2023-04-09T02:19:45.601Z,102541.41
2023-04-09T02:22:12.996Z,102540.84
2023-04-09T02:24:40.576Z,102539.78
2023-04-09T02:27:07.987Z,102535.41
2023-04-09T02:29:34.567Z,102544.66
2023-04-09T02:32:01.247Z,102553.66
2023-04-09T02:34:28.440Z,102549.25
2023-04-09T02:36:54.893Z,102548.41
2023-04-09T02:39:21.588Z,102548.66
2023-04-09T02:41:48.078Z,102525.00
2023-04-09T02:44:14.589Z,102538.59
2023-04-09T02:46:42.000Z,102535.88
2023-04-09T02:49:08.592Z,102520.84
2023-04-09T02:51:36.043Z,102514.56
2023-04-09T02:54:03.495Z,102526.28
2023-04-09T02:56:30.007Z,102527.38
2023-04-09T02:58:56.545Z,102519.44
2023-04-09T03:01:23.183Z,102522.19
2023-04-09T03:03:50.149Z,102515.91
2023-04-09T03:06:18.385Z,102520.50
2023-04-09T03:08:45.033Z,102518.84
2023-04-09T03:11:11.541Z,102518.28
2023-04-09T03:13:38.028Z,102519.09
2023-04-09T03:16:04.790Z,102509.25
2023-04-09T03:18:31.454Z,102520.16
2023-04-09T03:20:57.893Z,102510.34
2023-04-09T03:23:24.368Z,102504.06
2023-04-09T03:26:01.165Z,102513.06
2023-04-09T03:28:27.647Z,102499.69
2023-04-09T03:30:54.184Z,102490.72
2023-04-09T03:33:20.766Z,102503.47
2023-04-09T03:35:47.405Z,102498.88
2023-04-09T03:38:14.636Z,102491.97
2023-04-09T03:40:42.644Z,102488.22
2023-04-09T03:43:09.151Z,102485.72
2023-04-09T03:45:35.887Z,102488.66
2023-04-09T03:48:02.509Z,102496.59
2023-04-09T03:50:29.093Z,102496.81
2023-04-09T03:52:55.772Z,102492.44
2023-04-09T03:55:22.384Z,102496.25
2023-04-09T03:57:49.020Z,102490.00
2023-04-09T04:00:15.663Z,102494.59
2023-04-09T04:02:42.449Z,102490.00
2023-04-09T04:05:09.216Z,102495.44
2023-04-09T04:07:36.999Z,102481.00
2023-04-09T04:10:05.778Z,102489.72
2023-04-09T04:12:32.877Z,102485.72
2023-04-09T04:14:59.392Z,102476.50
2023-04-09T04:17:25.927Z,102475.78
2023-04-09T04:19:52.428Z,102487.25
2023-04-09T04:22:18.931Z,102473.66
2023-04-09T04:24:45.496Z,102478.84
2023-04-09T04:27:12.004Z,102468.53
2023-04-09T04:29:38.922Z,102476.72
2023-04-09T04:32:05.879Z,102472.91
2023-04-09T04:34:32.480Z,102483.81
2023-04-09T04:36:58.967Z,102478.09
2023-04-09T04:39:25.735Z,102476.22
2023-04-09T04:41:52.363Z,102477.28
2023-04-09T04:44:18.882Z,102477.88
2023-04-09T04:46:45.457Z,102481.69
2023-04-09T04:49:11.927Z,102481.69
2023-04-09T04:51:38.454Z,102490.91
2023-04-09T04:54:04.955Z,102489.00
2023-04-09T04:56:31.450Z,102494.44
2023-04-09T04:58:57.963Z,102490.91
2023-04-09T05:01:24.520Z,102496.34
2023-04-09T05:03:51.187Z,102493.63
2023-04-09T05:06:17.803Z,102493.63
2023-04-09T05:08:44.364Z,102496.13
2023-04-09T05:11:16.264Z,102501.56
2023-04-09T05:13:42.759Z,102493.41
2023-04-09T05:16:16.606Z,102486.88
2023-04-09T05:18:43.136Z,102493.97
2023-04-09T05:21:09.754Z,102485.78
2023-04-09T05:23:36.431Z,102493.13
2023-04-09T05:26:03.088Z,102489.34
2023-04-09T05:28:29.817Z,102487.69
2023-04-09T05:30:56.464Z,102489.34
2023-04-09T05:33:22.990Z,102500.47
2023-04-09T05:35:49.510Z,102503.22
2023-04-09T05:38:16.508Z,102499.41
2023-04-09T05:40:44.722Z,102489.59
2023-04-09T05:43:11.771Z,102495.03
2023-04-09T05:45:38.273Z,102495.88
2023-04-09T05:48:05.112Z,102497.50
2023-04-09T05:50:36.006Z,102494.56
2023-04-09T05:53:07.608Z,102499.19
2023-04-09T05:55:34.200Z,102495.38
2023-04-09T05:58:00.881Z,102494.91
2023-04-09T06:00:27.407Z,102497.38
2023-04-09T06:02:53.974Z,102490.63
2023-04-09T06:05:20.533Z,102506.97
2023-04-09T06:07:47.195Z,102504.81
2023-04-09T06:10:13.730Z,102501.22
2023-04-09T06:12:40.262Z,102496.09
2023-04-09T06:15:07.259Z,102495.16
2023-04-09T06:17:33.787Z,102501.41
2023-04-09T06:20:00.528Z,102500.34
2023-04-09T06:22:27.021Z,102505.69
2023-04-09T06:24:53.498Z,102500.84
2023-04-09T06:27:22.049Z,102507.94
2023-04-09T06:29:48.620Z,102507.13
2023-04-09T06:32:15.335Z,102507.94
2023-04-09T06:34:41.845Z,102518.59
2023-04-09T06:37:08.327Z,102515.53
2023-04-09T06:39:34.844Z,102515.53
2023-04-09T06:42:01.371Z,102510.56
2023-04-09T06:44:27.883Z,102514.34
2023-04-09T06:46:54.386Z,102512.13
2023-04-09T06:49:21.062Z,102509.63
2023-04-09T06:51:47.784Z,102516.16
2023-04-09T06:54:14.219Z,102510.94
2023-04-09T06:56:41.077Z,102505.75
2023-04-09T06:59:07.559Z,102509.28
2023-04-09T07:01:35.660Z,102513.31
2023-04-09T07:04:02.501Z,102509.78
2023-04-09T07:06:29.397Z,102507.88
2023-04-09T07:08:56.204Z,102504.59
2023-04-09T07:11:22.820Z,102498.31
2023-04-09T07:13:49.556Z,102504.59
2023-04-09T07:16:16.203Z,102506.50
2023-04-09T07:18:42.826Z,102500.22
2023-04-09T07:21:09.330Z,102505.66
2023-04-09T07:23:37.138Z,102501.25
2023-04-09T07:26:05.355Z,102503.16
2023-04-09T07:28:32.310Z,102515.97
2023-04-09T07:31:01.281Z,102513.25
2023-04-09T07:33:27.783Z,102516.72
2023-04-09T07:35:54.911Z,102512.31
2023-04-09T07:38:22.544Z,102525.31
2023-04-09T07:40:49.120Z,102518.78
2023-04-09T07:43:15.832Z,102513.34
2023-04-09T07:45:42.438Z,102510.28
2023-04-09T07:48:09.282Z,102509.66
2023-04-09T07:50:36.512Z,102509.09
2023-04-09T07:53:03.090Z,102500.59
2023-04-09T07:55:29.548Z,102501.19
2023-04-09T07:57:56.084Z,102504.97
2023-04-09T08:00:22.643Z,102503.56
2023-04-09T08:02:49.352Z,102504.63
2023-04-09T08:05:16.118Z,102507.59
2023-04-09T08:07:42.699Z,102503.22
2023-04-09T08:10:14.004Z,102509.72
2023-04-09T08:12:41.088Z,102507.25
2023-04-09T08:15:08.289Z,102516.50
2023-04-09T08:17:36.927Z,102506.66
2023-04-09T08:20:04.783Z,102509.38
2023-04-09T08:22:31.986Z,102506.91
2023-04-09T08:25:00.261Z,102511.28
2023-04-09T08:27:29.148Z,102517.06
2023-04-09T08:29:55.771Z,102503.81
2023-04-09T08:32:22.280Z,102512.56
2023-04-09T08:34:48.848Z,102514.22
2023-04-09T08:37:16.602Z,102517.19
2023-04-09T08:39:43.178Z,102511.56
2023-04-09T08:42:12.581Z,102523.41
2023-04-09T08:44:39.188Z,102518.88
2023-04-09T08:47:12.573Z,102515.91
2023-04-09T08:49:40.945Z,102507.81
2023-04-09T08:52:08.343Z,102514.91
2023-04-09T08:54:35.427Z,102508.16
2023-04-09T08:57:05.254Z,102516.06
2023-04-09T08:59:36.797Z,102510.88
2023-04-09T09:02:11.689Z,102520.38
2023-04-09T09:04:46.634Z,102515.16
2023-04-09T09:07:13.698Z,102516.47
2023-04-09T09:09:53.972Z,102512.09
2023-04-09T09:12:43.183Z,102519.69
2023-04-09T09:15:27.358Z,102514.50
2023-04-09T09:17:56.055Z,102517.47
2023-04-09T09:20:23.521Z,102512.03
2023-04-09T09:22:55.652Z,102507.88
2023-04-09T09:25:26.278Z,102511.44
2023-04-09T09:27:53.852Z,102515.22
2023-04-09T09:30:25.340Z,102519.88
2023-04-09T09:32:53.825Z,102507.28
2023-04-09T09:35:20.646Z,102511.91
2023-04-09T09:37:47.180Z,102508.38
2023-04-09T09:40:27.808Z,102501.00
2023-04-09T09:42:56.612Z,102500.19
2023-04-09T09:45:24.053Z,102503.75
2023-04-09T09:47:51.537Z,102494.75
2023-04-09T09:50:18.490Z,102487.41
2023-04-09T09:52:46.643Z,102483.84
2023-04-09T09:55:17.951Z,102483.84
2023-04-09T09:57:47.532Z,102496.66
2023-04-09T10:00:15.294Z,102483.28
2023-04-09T10:02:51.243Z,102488.72
2023-04-09T10:05:17.864Z,102486.84
2023-04-09T10:07:45.018Z,102484.09
2023-04-09T10:10:11.596Z,102481.38
2023-04-09T10:12:41.719Z,102472.38
2023-04-09T10:15:09.452Z,102469.66
2023-04-09T10:17:36.874Z,102474.25
2023-04-09T10:20:26.088Z,102467.75
2023-04-09T10:22:53.670Z,102461.50
2023-04-09T10:25:20.774Z,102457.69
2023-04-09T10:28:00.200Z,102457.91
2023-04-09T10:30:33.430Z,102449.75
2023-04-09T10:33:29.564Z,102452.47
2023-04-09T10:36:00.824Z,102453.31
2023-04-09T10:38:47.014Z,102448.91
2023-04-09T10:41:29.427Z,102444.28
2023-04-09T10:43:57.779Z,102448.69
2023-04-09T10:46:34.493Z,102441.56
2023-04-09T10:49:16.858Z,102438.59
2023-04-09T10:51:50.954Z,102439.19
2023-04-09T10:54:35.620Z,102428.88
2023-04-09T10:57:07.977Z,102430.28
2023-04-09T10:59:36.271Z,102417.22
2023-04-09T11:02:07.016Z,102425.41
2023-04-09T11:05:10.828Z,102417.47
2023-04-09T11:07:43.857Z,102418.88
2023-04-09T11:10:10.376Z,102419.94
2023-04-09T11:12:36.905Z,102413.41
2023-04-09T11:15:04.873Z,102423.25
2023-04-09T11:17:36.656Z,102416.13
2023-04-09T11:20:03.823Z,102417.00
2023-04-09T11:22:30.631Z,102419.47
2023-04-09T11:24:57.164Z,102414.00
2023-04-09T11:27:23.917Z,102408.56
2023-04-09T11:29:58.424Z,102407.47
2023-04-09T11:32:30.367Z,102395.75
2023-04-09T11:34:57.888Z,102395.75
2023-04-09T11:37:24.993Z,102413.75
2023-04-09T11:39:56.034Z,102406.44
2023-04-09T11:42:25.660Z,102395.53
2023-04-09T11:44:53.093Z,102390.63
2023-04-09T11:47:21.069Z,102385.19
2023-04-09T11:49:47.815Z,102383.28
2023-04-09T11:52:16.674Z,102388.50
2023-04-09T11:54:49.273Z,102378.97
2023-04-09T11:57:16.134Z,102385.06
2023-04-09T11:59:42.857Z,102385.06
2023-04-09T12:02:09.480Z,102397.38
2023-04-09T12:04:36.317Z,102399.00
2023-04-09T12:07:03.098Z,102397.09
2023-04-09T12:09:29.751Z,102385.94
2023-04-09T12:11:56.623Z,102374.81
2023-04-09T12:14:23.238Z,102382.72
2023-04-09T12:16:52.974Z,102379.78
2023-04-09T12:19:20.493Z,102374.06
2023-04-09T12:21:47.969Z,102391.00
2023-04-09T12:24:15.381Z,102387.44
2023-04-09T12:26:41.901Z,102391.56
2023-04-09T12:29:08.712Z,102391.56
2023-04-09T12:31:36.138Z,102387.53
2023-04-09T12:34:02.858Z,102382.88
2023-04-09T12:36:29.854Z,102396.53
2023-04-09T12:38:56.374Z,102391.88
2023-04-09T12:41:24.152Z,102379.91
2023-04-09T12:43:51.446Z,102378.00
2023-04-09T12:46:19.773Z,102382.13
2023-04-09T12:48:46.974Z,102371.50
2023-04-09T12:51:14.219Z,102372.88
2023-04-09T12:53:40.931Z,102360.91
2023-04-09T12:56:08.004Z,102358.75
2023-04-09T12:58:35.708Z,102362.38
2023-04-09T13:01:04.281Z,102364.03
2023-04-09T13:03:31.193Z,102362.94
2023-04-09T13:05:58.024Z,102358.31
2023-04-09T13:08:24.592Z,102353.66
2023-04-09T13:10:51.204Z,102360.22
2023-04-09T13:13:17.782Z,102361.78
2023-04-09T13:15:45.066Z,102359.56
2023-04-09T13:18:14.794Z,102360.66
2023-04-09T13:20:41.412Z,102355.47
2023-04-09T13:23:07.906Z,102349.16
2023-04-09T13:25:34.466Z,102352.72
2023-04-09T13:28:01.001Z,102342.06
2023-04-09T13:30:27.562Z,102329.50
2023-04-09T13:32:54.118Z,102334.13
2023-04-09T13:35:20.714Z,102336.88
2023-04-09T13:37:47.201Z,102326.78
2023-04-09T13:40:13.793Z,102322.41
2023-04-09T13:42:40.338Z,102325.16
2023-04-09T13:45:07.172Z,102309.84
2023-04-09T13:47:33.740Z,102311.75
2023-04-09T13:50:00.507Z,102313.41
2023-04-09T13:52:29.646Z,102308.78
2023-04-09T13:54:56.643Z,102298.13
2023-04-09T13:57:23.271Z,102291.59
2023-04-09T13:59:49.814Z,102302.75
2023-04-09T14:02:18.375Z,102288.88
2023-04-09T14:04:45.815Z,102279.84
2023-04-09T14:07:12.379Z,102270.03
2023-04-09T14:09:38.924Z,102260.53
2023-04-09T14:12:05.699Z,102254.25
2023-04-09T14:14:32.638Z,102262.44
2023-04-09T14:16:59.204Z,102261.34
2023-04-09T14:19:25.865Z,102256.16
2023-04-09T14:21:53.345Z,102259.72
2023-04-09T14:24:22.979Z,102252.59
2023-04-09T14:26:52.289Z,102248.00
2023-04-09T14:29:19.528Z,102238.97
2023-04-09T14:31:47.320Z,102232.69
2023-04-09T14:34:14.145Z,102245.00
2023-04-09T14:36:40.761Z,102240.63
2023-04-09T14:39:07.379Z,102233.50
2023-04-09T14:41:34.365Z,102236.22
2023-04-09T14:44:01.067Z,102239.53
2023-04-09T14:46:27.698Z,102234.09
2023-04-09T14:48:54.739Z,102236.81
2023-04-09T14:51:21.506Z,102235.72
2023-04-09T14:53:48.526Z,102224.59
2023-04-09T14:56:15.400Z,102227.31
2023-04-09T14:58:41.891Z,102228.13
2023-04-09T15:01:08.433Z,102219.94
2023-04-09T15:03:35.274Z,102207.97
2023-04-09T15:06:01.979Z,102215.06
2023-04-09T15:08:28.615Z,102212.91
2023-04-09T15:10:55.228Z,102203.91
2023-04-09T15:13:21.726Z,102214.00
2023-04-09T15:15:48.272Z,102208.78
2023-04-09T15:18:15.087Z,102209.09
2023-04-09T15:20:43.306Z,102202.81
2023-04-09T15:23:11.019Z,102199.81
2023-04-09T15:25:37.853Z,102211.59
2023-04-09T15:28:04.646Z,102208.59
2023-04-09T15:30:31.319Z,102203.41
2023-04-09T15:32:58.085Z,102201.22
2023-04-09T15:35:29.105Z,102202.56
2023-04-09T15:37:59.246Z,102197.94
2023-04-09T15:40:25.921Z,102205.88
2023-04-09T15:42:52.515Z,102193.88
2023-04-09T15:45:19.196Z,102204.78
2023-04-09T15:47:46.466Z,102191.97
2023-04-09T15:50:14.213Z,102191.97
2023-04-09T15:52:40.781Z,102189.25
2023-04-09T15:55:07.636Z,102191.16
2023-04-09T15:57:34.147Z,102189.25
2023-04-09T16:00:00.708Z,102183.78
2023-04-09T16:02:27.344Z,102188.41
2023-04-09T16:04:54.045Z,102179.16
2023-04-09T16:07:20.770Z,102174.53
2023-04-09T16:09:47.319Z,102175.59
2023-04-09T16:12:13.868Z,102179.16
2023-04-09T16:14:40.938Z,102176.41
2023-04-09T16:17:07.645Z,102166.59
2023-04-09T16:19:34.279Z,102172.63
2023-04-09T16:22:01.687Z,102168.25
2023-04-09T16:24:28.793Z,102164.69
2023-04-09T16:26:56.394Z,102161.97
2023-04-09T16:29:24.275Z,102161.97
2023-04-09T16:31:50.807Z,102160.06
2023-04-09T16:34:17.375Z,102158.44
2023-04-09T16:36:44.691Z,102161.97
2023-04-09T16:39:11.477Z,102162.25
2023-04-09T16:41:38.434Z,102152.97
2023-04-09T16:44:04.987Z,102164.69
2023-04-09T16:46:31.660Z,102172.63
2023-04-09T16:48:58.176Z,102158.19
2023-04-09T16:51:24.936Z,102164.69
2023-04-09T16:53:51.639Z,102161.16
2023-04-09T16:56:18.258Z,102160.34
2023-04-09T16:58:46.554Z,102160.06
2023-04-09T17:01:13.201Z,102158.44
2023-04-09T17:03:39.871Z,102153.25
2023-04-09T17:06:06.987Z,102154.88
2023-04-09T17:08:35.058Z,102163.88
2023-04-09T17:11:02.358Z,102160.34
2023-04-09T17:13:34.250Z,102161.41
2023-04-09T17:16:01.202Z,102173.97
2023-04-09T17:18:27.862Z,102154.88
2023-04-09T17:20:54.661Z,102151.34
2023-04-09T17:23:22.918Z,102150.50
2023-04-09T17:25:49.589Z,102154.06
2023-04-09T17:28:18.631Z,102164.97
2023-04-09T17:30:45.559Z,102156.19
2023-04-09T17:33:12.469Z,102151.59
2023-04-09T17:35:39.435Z,102154.34
2023-04-09T17:38:06.187Z,102151.84
2023-04-09T17:40:32.748Z,102162.75
2023-04-09T17:43:00.067Z,102153.75
2023-04-09T17:45:26.769Z,102157.81
2023-04-09T17:47:53.281Z,102156.97
2023-04-09T17:50:20.000Z,102160.03
2023-04-09T17:52:46.850Z,102152.09
2023-04-09T17:55:13.947Z,102154.25
2023-04-09T17:57:41.633Z,102163.53
2023-04-09T18:00:09.733Z,102155.34
2023-04-09T18:02:36.770Z,102158.06
2023-04-09T18:05:07.240Z,102165.44
2023-04-09T18:07:34.144Z,102155.34
2023-04-09T18:10:02.403Z,102150.13
2023-04-09T18:12:29.204Z,102156.66
2023-04-09T18:14:55.948Z,102153.94
2023-04-09T18:17:22.802Z,102155.03
2023-04-09T18:19:49.562Z,102159.66
2023-04-09T18:22:16.601Z,102146.84
2023-04-09T18:24:43.201Z,102141.41
2023-04-09T18:27:09.759Z,102153.13
2023-04-09T18:29:36.363Z,102145.75
2023-04-09T18:32:02.928Z,102153.94
2023-04-09T18:34:29.651Z,102153.38
2023-04-09T18:36:56.203Z,102153.38
2023-04-09T18:39:23.150Z,102156.13
2023-04-09T18:41:49.834Z,102154.22
2023-04-09T18:44:16.581Z,102165.94
2023-04-09T18:46:43.224Z,102160.47
2023-04-09T18:49:10.080Z,102164.28
2023-04-09T18:51:36.708Z,102158.03
2023-04-09T18:54:03.288Z,102154.44
2023-04-09T18:56:29.904Z,102161.81
2023-04-09T18:58:56.706Z,102167.53
2023-04-09T19:01:23.428Z,102159.34
2023-04-09T19:03:50.203Z,102154.97
2023-04-09T19:06:19.202Z,102160.44
2023-04-09T19:08:46.904Z,102163.16
2023-04-09T19:11:14.328Z,102168.84
2023-04-09T19:13:40.941Z,102159.84
2023-04-09T19:16:09.375Z,102169.94
2023-04-09T19:18:37.091Z,102171.84
2023-04-09T19:21:04.101Z,102170.22
2023-04-09T19:23:30.757Z,102158.44
2023-04-09T19:25:57.633Z,102165.81
2023-04-09T19:28:24.380Z,102162.25
2023-04-09T19:30:52.509Z,102158.44
2023-04-09T19:33:26.653Z,102166.06
2023-04-09T19:35:55.332Z,102159.81
2023-04-09T19:38:22.079Z,102158.13
2023-04-09T19:40:48.797Z,102162.78
2023-04-09T19:43:15.541Z,102168.50
2023-04-09T19:45:44.838Z,102163.03
2023-04-09T19:48:12.730Z,102160.03
2023-04-09T19:50:46.472Z,102163.03
2023-04-09T19:53:13.156Z,102147.78
2023-04-09T19:55:39.712Z,102146.09
2023-04-09T19:58:06.968Z,102141.72
2023-04-09T20:00:34.549Z,102131.91
2023-04-09T20:03:01.678Z,102133.81
2023-04-09T20:05:29.163Z,102136.25
2023-04-09T20:07:55.763Z,102138.69
2023-04-09T20:10:22.236Z,102122.09
2023-04-09T20:12:49.855Z,102120.75
2023-04-09T20:15:19.839Z,102132.25
2023-04-09T20:17:50.854Z,102129.50
2023-04-09T20:20:20.848Z,102135.78
2023-04-09T20:22:55.488Z,102140.16
2023-04-09T20:25:23.702Z,102133.28
2023-04-09T20:27:52.850Z,102134.97
2023-04-09T20:30:19.867Z,102138.75
2023-04-09T20:32:47.484Z,102136.03
2023-04-09T20:35:14.619Z,102128.09
2023-04-09T20:37:41.233Z,102123.75
2023-04-09T20:40:08.275Z,102126.47
2023-04-09T20:42:34.750Z,102128.38
2023-04-09T20:45:01.943Z,102141.19
2023-04-09T20:47:28.853Z,102127.78
2023-04-09T20:49:59.672Z,102131.34
2023-04-09T20:52:28.477Z,102123.16
2023-04-09T20:54:56.886Z,102129.69
2023-04-09T20:57:23.973Z,102138.13
2023-04-09T20:59:50.888Z,102119.03
2023-04-09T21:02:17.614Z,102130.16
2023-04-09T21:04:44.605Z,102134.53
2023-04-09T21:07:11.522Z,102127.44
2023-04-09T21:09:38.367Z,102121.44
2023-04-09T21:12:05.097Z,102125.22
2023-04-09T21:14:31.823Z,102118.44
2023-04-09T21:16:58.451Z,102120.59
2023-04-09T21:19:25.064Z,102122.50
2023-04-09T21:21:51.873Z,102109.16
2023-04-09T21:24:18.518Z,102113.78
2023-04-09T21:26:51.778Z,102116.75
2023-04-09T21:29:20.683Z,102115.91
2023-04-09T21:31:48.159Z,102108.84
2023-04-09T21:34:14.698Z,102108.84
2023-04-09T21:36:41.314Z,102105.28
2023-04-09T21:39:07.920Z,102103.66
2023-04-09T21:41:34.562Z,102109.34
2023-04-09T21:44:07.839Z,102097.34
2023-04-09T21:46:36.878Z,102107.69
2023-04-09T21:49:04.310Z,102107.69
2023-04-09T21:51:31.565Z,102102.50
2023-04-09T21:54:06.210Z,102111.50
2023-04-09T21:56:33.985Z,102106.06
2023-04-09T21:59:01.312Z,102101.94
2023-04-09T22:01:30.574Z,102099.19
2023-04-09T22:04:01.920Z,102099.72
2023-04-09T22:06:29.056Z,102100.53
2023-04-09T22:08:57.813Z,102105.16
2023-04-09T22:11:27.475Z,102095.91
2023-04-09T22:13:58.269Z,102098.06
2023-04-09T22:16:25.989Z,102098.06
2023-04-09T22:18:53.965Z,102088.25
2023-04-09T22:21:21.046Z,102097.25
2023-04-09T22:23:47.689Z,102088.25
2023-04-09T22:26:14.333Z,102097.75
2023-04-09T22:28:40.884Z,102100.47
2023-04-09T22:31:07.666Z,102100.47
2023-04-09T22:33:34.345Z,102083.31
2023-04-09T22:36:01.221Z,102095.03
2023-04-09T22:38:27.827Z,102089.84
2023-04-09T22:40:54.548Z,102092.56
2023-04-09T22:43:21.290Z,102084.63
2023-04-09T22:45:52.747Z,102082.72
2023-04-09T22:48:20.179Z,102092.81
2023-04-09T22:50:47.696Z,102082.41
2023-04-09T22:53:20.771Z,102084.31
2023-04-09T22:55:51.271Z,102080.78
2023-04-09T22:58:17.992Z,102071.78
2023-04-09T23:00:44.544Z,102072.59
2023-04-09T23:03:11.309Z,102074.50
2023-04-09T23:05:38.187Z,102067.41
2023-04-09T23:08:05.534Z,102066.56
2023-04-09T23:10:33.429Z,102054.84
2023-04-09T23:13:00.005Z,102062.22
2023-04-09T23:15:27.268Z,102059.75
2023-04-09T23:17:54.137Z,102050.75
2023-04-09T23:20:20.719Z,102057.03
2023-04-09T23:22:48.001Z,102050.75
2023-04-09T23:25:18.183Z,102040.69
2023-04-09T23:27:44.947Z,102041.78
2023-04-09T23:30:16.512Z,102044.50
2023-04-09T23:32:44.822Z,102036.56
2023-04-09T23:35:12.144Z,102027.56
2023-04-09T23:37:39.574Z,102030.28
2023-04-09T23:40:07.402Z,102026.75
2023-04-09T23:42:34.064Z,102025.13
2023-04-09T23:45:04.874Z,102036.00
2023-04-09T23:47:33.649Z,102023.44
2023-04-09T23:50:07.972Z,102023.44
2023-04-09T23:52:36.443Z,102014.47
2023-04-09T23:55:04.486Z,102010.09
2023-04-09T23:57:31.188Z,102009.28
2023-04-09T23:59:57.772Z,102004.88
